sensor_id;sensor_type;location;lat;lon;timestamp;P1;durP1;ratioP1;P2;durP2;ratioP2
29414;SDS011;20303;48.302;11.914;2023-03-08T00:08:19;35.40;;;22.90;;
29414;SDS011;20303;48.302;11.914;2023-03-08T00:18:20;35.95;;;23.08;;
29414;SDS011;20303;48.302;11.914;2023-03-08T00:28:21;33.38;;;22.20;;
29414;SDS011;20303;48.302;11.914;2023-03-08T00:38:22;30.25;;;19.83;;
29414;SDS011;20303;48.302;11.914;2023-03-08T00:48:24;30.17;;;19.75;;
29414;SDS011;20303;48.302;11.914;2023-03-08T00:58:26;28.80;;;18.48;;
29414;SDS011;20303;48.302;11.914;2023-03-08T01:08:28;28.83;;;17.90;;
29414;SDS011;20303;48.302;11.914;2023-03-08T01:18:29;28.10;;;17.42;;
29414;SDS011;20303;48.302;11.914;2023-03-08T01:28:30;25.55;;;16.80;;
29414;SDS011;20303;48.302;11.914;2023-03-08T01:38:32;22.95;;;15.40;;
29414;SDS011;20303;48.302;11.914;2023-03-08T01:48:43;21.73;;;14.50;;
29414;SDS011;20303;48.302;11.914;2023-03-08T01:58:55;22.42;;;14.40;;
29414;SDS011;20303;48.302;11.914;2023-03-08T02:08:56;19.88;;;13.88;;
29414;SDS011;20303;48.302;11.914;2023-03-08T02:19:03;17.80;;;12.57;;
29414;SDS011;20303;48.302;11.914;2023-03-08T02:29:07;18.52;;;12.40;;
29414;SDS011;20303;48.302;11.914;2023-03-08T02:39:08;16.75;;;11.32;;
29414;SDS011;20303;48.302;11.914;2023-03-08T02:49:09;17.15;;;11.30;;
29414;SDS011;20303;48.302;11.914;2023-03-08T02:59:10;16.83;;;11.13;;
29414;SDS011;20303;48.302;11.914;2023-03-08T03:09:11;16.50;;;10.95;;
29414;SDS011;20303;48.302;11.914;2023-03-08T03:19:12;13.93;;;10.15;;
29414;SDS011;20303;48.302;11.914;2023-03-08T03:29:14;14.60;;;9.85;;
29414;SDS011;20303;48.302;11.914;2023-03-08T03:49:16;12.90;;;8.57;;
29414;SDS011;20303;48.302;11.914;2023-03-08T04:09:18;10.93;;;8.07;;
29414;SDS011;20303;48.302;11.914;2023-03-08T04:19:19;10.25;;;7.57;;
29414;SDS011;20303;48.302;11.914;2023-03-08T04:39:20;9.50;;;7.17;;
29414;SDS011;20303;48.302;11.914;2023-03-08T04:59:23;9.17;;;6.37;;
29414;SDS011;20303;48.302;11.914;2023-03-08T05:09:24;9.23;;;6.40;;
29414;SDS011;20303;48.302;11.914;2023-03-08T05:19:25;8.20;;;6.22;;
29414;SDS011;20303;48.302;11.914;2023-03-08T05:39:27;7.73;;;5.43;;
29414;SDS011;20303;48.302;11.914;2023-03-08T05:49:29;6.80;;;4.97;;
29414;SDS011;20303;48.302;11.914;2023-03-08T05:59:30;7.95;;;5.25;;
29414;SDS011;20303;48.302;11.914;2023-03-08T06:09:31;6.53;;;4.88;;
29414;SDS011;20303;48.302;11.914;2023-03-08T06:19:34;7.20;;;4.75;;
29414;SDS011;20303;48.302;11.914;2023-03-08T06:29:35;6.15;;;4.28;;
29414;SDS011;20303;48.302;11.914;2023-03-08T06:39:36;7.82;;;5.10;;
29414;SDS011;20303;48.302;11.914;2023-03-08T06:59:38;5.77;;;4.20;;
29414;SDS011;20303;48.302;11.914;2023-03-08T07:19:40;6.53;;;4.00;;
29414;SDS011;20303;48.302;11.914;2023-03-08T07:29:42;6.15;;;4.50;;
29414;SDS011;20303;48.302;11.914;2023-03-08T07:39:43;8.98;;;4.40;;
29414;SDS011;20303;48.302;11.914;2023-03-08T07:49:44;7.68;;;3.97;;
29414;SDS011;20303;48.302;11.914;2023-03-08T08:09:47;6.60;;;4.40;;
29414;SDS011;20303;48.302;11.914;2023-03-08T08:19:48;7.05;;;4.22;;
29414;SDS011;20303;48.302;11.914;2023-03-08T08:29:49;6.72;;;4.10;;
29414;SDS011;20303;48.302;11.914;2023-03-08T08:39:50;6.38;;;4.13;;
29414;SDS011;20303;48.302;11.914;2023-03-08T08:49:51;8.32;;;4.45;;
29414;SDS011;20303;48.302;11.914;2023-03-08T08:59:52;5.78;;;4.40;;
29414;SDS011;20303;48.302;11.914;2023-03-08T09:09:54;7.07;;;4.53;;
29414;SDS011;20303;48.302;11.914;2023-03-08T09:19:55;6.35;;;4.38;;
29414;SDS011;20303;48.302;11.914;2023-03-08T09:29:56;5.68;;;4.43;;
29414;SDS011;20303;48.302;11.914;2023-03-08T09:39:58;6.78;;;4.38;;
29414;SDS011;20303;48.302;11.914;2023-03-08T10:00:34;6.70;;;4.47;;
29414;SDS011;20303;48.302;11.914;2023-03-08T10:10:41;6.55;;;3.95;;
29414;SDS011;20303;48.302;11.914;2023-03-08T10:20:48;9.38;;;4.47;;
29414;SDS011;20303;48.302;11.914;2023-03-08T10:30:51;7.82;;;4.35;;
29414;SDS011;20303;48.302;11.914;2023-03-08T10:51:28;7.13;;;3.80;;
29414;SDS011;20303;48.302;11.914;2023-03-08T11:01:30;6.80;;;3.85;;
29414;SDS011;20303;48.302;11.914;2023-03-08T11:11:40;8.73;;;4.13;;
29414;SDS011;20303;48.302;11.914;2023-03-08T11:42:30;4.95;;;3.67;;
29414;SDS011;20303;48.302;11.914;2023-03-08T12:03:02;255.48;;;53.15;;
29414;SDS011;20303;48.302;11.914;2023-03-08T12:13:31;369.77;;;84.82;;
29414;SDS011;20303;48.302;11.914;2023-03-08T12:33:47;351.63;;;86.90;;
29414;SDS011;20303;48.302;11.914;2023-03-08T12:43:57;331.23;;;81.68;;
29414;SDS011;20303;48.302;11.914;2023-03-08T13:04:02;318.23;;;84.73;;
29414;SDS011;20303;48.302;11.914;2023-03-08T13:14:22;301.27;;;77.40;;
29414;SDS011;20303;48.302;11.914;2023-03-08T13:24:31;286.80;;;74.43;;
29414;SDS011;20303;48.302;11.914;2023-03-08T13:34:38;267.13;;;69.47;;
29414;SDS011;20303;48.302;11.914;2023-03-08T13:44:40;259.13;;;66.05;;
29414;SDS011;20303;48.302;11.914;2023-03-08T13:54:43;244.52;;;62.88;;
29414;SDS011;20303;48.302;11.914;2023-03-08T14:04:45;229.45;;;59.80;;
29414;SDS011;20303;48.302;11.914;2023-03-08T14:14:48;209.45;;;58.20;;
29414;SDS011;20303;48.302;11.914;2023-03-08T14:24:53;186.35;;;51.80;;
29414;SDS011;20303;48.302;11.914;2023-03-08T14:35:05;170.65;;;48.78;;
29414;SDS011;20303;48.302;11.914;2023-03-08T14:45:38;154.77;;;46.92;;
29414;SDS011;20303;48.302;11.914;2023-03-08T14:55:41;158.60;;;45.65;;
29414;SDS011;20303;48.302;11.914;2023-03-08T15:05:42;147.05;;;43.80;;
29414;SDS011;20303;48.302;11.914;2023-03-08T15:15:45;125.13;;;40.80;;
29414;SDS011;20303;48.302;11.914;2023-03-08T15:25:46;115.47;;;39.45;;
29414;SDS011;20303;48.302;11.914;2023-03-08T15:35:48;118.30;;;37.53;;
29414;SDS011;20303;48.302;11.914;2023-03-08T15:45:49;108.00;;;36.05;;
29414;SDS011;20303;48.302;11.914;2023-03-08T15:55:50;101.05;;;34.42;;
29414;SDS011;20303;48.302;11.914;2023-03-08T16:05:52;90.43;;;32.28;;
29414;SDS011;20303;48.302;11.914;2023-03-08T16:15:56;84.35;;;30.73;;
29414;SDS011;20303;48.302;11.914;2023-03-08T16:36:07;64.28;;;25.42;;
29414;SDS011;20303;48.302;11.914;2023-03-08T16:46:08;63.75;;;25.42;;
29414;SDS011;20303;48.302;11.914;2023-03-08T16:56:21;66.10;;;25.05;;
29414;SDS011;20303;48.302;11.914;2023-03-08T17:06:24;60.13;;;23.52;;
29414;SDS011;20303;48.302;11.914;2023-03-08T17:16:27;54.05;;;21.90;;
29414;SDS011;20303;48.302;11.914;2023-03-08T17:26:30;54.55;;;22.23;;
29414;SDS011;20303;48.302;11.914;2023-03-08T17:36:31;47.05;;;19.30;;
29414;SDS011;20303;48.302;11.914;2023-03-08T17:46:32;46.58;;;18.90;;
29414;SDS011;20303;48.302;11.914;2023-03-08T17:56:33;43.78;;;18.23;;
29414;SDS011;20303;48.302;11.914;2023-03-08T18:06:38;42.63;;;18.13;;
29414;SDS011;20303;48.302;11.914;2023-03-08T18:16:44;73.30;;;34.40;;
29414;SDS011;20303;48.302;11.914;2023-03-08T18:26:45;86.60;;;43.92;;
29414;SDS011;20303;48.302;11.914;2023-03-08T18:36:47;85.60;;;41.95;;
29414;SDS011;20303;48.302;11.914;2023-03-08T18:56:49;83.77;;;41.73;;
29414;SDS011;20303;48.302;11.914;2023-03-08T19:06:52;81.35;;;41.10;;
29414;SDS011;20303;48.302;11.914;2023-03-08T19:16:53;85.00;;;41.78;;
29414;SDS011;20303;48.302;11.914;2023-03-08T19:26:56;78.50;;;40.60;;
29414;SDS011;20303;48.302;11.914;2023-03-08T19:36:58;75.63;;;40.00;;
29414;SDS011;20303;48.302;11.914;2023-03-08T19:47:00;69.47;;;36.13;;
29414;SDS011;20303;48.302;11.914;2023-03-08T19:57:03;67.82;;;35.72;;
29414;SDS011;20303;48.302;11.914;2023-03-08T20:07:04;64.00;;;33.15;;
29414;SDS011;20303;48.302;11.914;2023-03-08T20:17:06;62.63;;;32.55;;
29414;SDS011;20303;48.302;11.914;2023-03-08T20:27:07;58.45;;;30.50;;
29414;SDS011;20303;48.302;11.914;2023-03-08T20:37:08;56.10;;;29.60;;
29414;SDS011;20303;48.302;11.914;2023-03-08T20:47:09;56.22;;;29.27;;
29414;SDS011;20303;48.302;11.914;2023-03-08T20:57:10;53.28;;;27.85;;
29414;SDS011;20303;48.302;11.914;2023-03-08T21:07:11;51.38;;;26.55;;
29414;SDS011;20303;48.302;11.914;2023-03-08T21:17:12;44.80;;;24.48;;
29414;SDS011;20303;48.302;11.914;2023-03-08T21:27:13;42.67;;;24.17;;
29414;SDS011;20303;48.302;11.914;2023-03-08T21:37:15;40.03;;;22.50;;
29414;SDS011;20303;48.302;11.914;2023-03-08T21:47:16;39.78;;;22.90;;
29414;SDS011;20303;48.302;11.914;2023-03-08T21:57:17;39.35;;;21.70;;
29414;SDS011;20303;48.302;11.914;2023-03-08T22:07:18;36.78;;;21.05;;
29414;SDS011;20303;48.302;11.914;2023-03-08T22:17:19;35.33;;;20.35;;
29414;SDS011;20303;48.302;11.914;2023-03-08T22:27:20;34.90;;;19.90;;
29414;SDS011;20303;48.302;11.914;2023-03-08T22:37:26;32.30;;;18.13;;
29414;SDS011;20303;48.302;11.914;2023-03-08T22:47:27;33.38;;;18.38;;
29414;SDS011;20303;48.302;11.914;2023-03-08T22:57:29;30.98;;;17.70;;
29414;SDS011;20303;48.302;11.914;2023-03-08T23:07:30;28.08;;;16.83;;
29414;SDS011;20303;48.302;11.914;2023-03-08T23:17:31;27.77;;;16.15;;
29414;SDS011;20303;48.302;11.914;2023-03-08T23:27:32;28.00;;;16.35;;
29414;SDS011;20303;48.302;11.914;2023-03-08T23:37:33;25.95;;;15.30;;
29414;SDS011;20303;48.302;11.914;2023-03-08T23:47:35;24.33;;;13.90;;
29414;SDS011;20303;48.302;11.914;2023-03-08T23:57:36;22.35;;;13.25;;
